createdAt,value
2023-02-26T00:02:35.859Z,100775.42
2023-02-26T00:05:10.769Z,100773.43
2023-02-26T00:07:59.202Z,100779.64
2023-02-26T00:10:51.378Z,100782.78
2023-02-26T00:13:27.150Z,100773.76
2023-02-26T00:15:57.994Z,100783.04
2023-02-26T00:18:26.444Z,100780.23
2023-02-26T00:20:59.764Z,100788.14
2023-02-26T00:23:34.641Z,100786.18
2023-02-26T00:26:02.960Z,100792.09
2023-02-26T00:28:36.138Z,100789.84
2023-02-26T00:31:06.957Z,100798.27
2023-02-26T00:33:52.889Z,100796.87
2023-02-26T00:37:14.476Z,100799.91
2023-02-26T00:40:07.674Z,100806.16
2023-02-26T00:42:38.710Z,100804.72
2023-02-26T00:45:14.550Z,100800.76
2023-02-26T00:47:57.469Z,100798.54
2023-02-26T00:50:35.061Z,100799.36
2023-02-26T00:53:23.661Z,100800.80
2023-02-26T00:55:57.333Z,100796.05
2023-02-26T00:58:41.214Z,100812.40
2023-02-26T01:01:29.956Z,100813.55
2023-02-26T01:04:16.425Z,100810.70
2023-02-26T01:06:46.915Z,100813.22
2023-02-26T01:09:37.600Z,100804.49
2023-02-26T01:12:15.037Z,100806.48
2023-02-26T01:15:07.554Z,100813.77
2023-02-26T01:17:45.614Z,100810.67
2023-02-26T01:20:24.980Z,100807.89
2023-02-26T01:23:06.768Z,100802.85
2023-02-26T01:25:51.600Z,100810.15
2023-02-26T01:28:19.955Z,100811.29
2023-02-26T01:30:54.937Z,100807.66
2023-02-26T01:33:54.775Z,100805.66
2023-02-26T01:36:37.583Z,100797.23
2023-02-26T01:39:26.078Z,100805.66
2023-02-26T01:42:10.039Z,100798.63
2023-02-26T01:44:49.760Z,100801.16
2023-02-26T01:47:38.097Z,100803.97
2023-02-26T01:50:26.905Z,100802.00
2023-02-26T01:53:12.606Z,100805.96
2023-02-26T01:55:46.172Z,100803.45
2023-02-26T01:58:29.873Z,100805.11
2023-02-26T02:01:00.645Z,100799.48
2023-02-26T02:03:39.949Z,100805.11
2023-02-26T02:06:10.558Z,100803.45
2023-02-26T02:08:51.669Z,100799.23
2023-02-26T02:11:33.521Z,100797.49
2023-02-26T02:14:13.640Z,100803.12
2023-02-26T02:17:34.350Z,100804.29
2023-02-26T02:23:41.390Z,100802.59
2023-02-26T02:26:37.444Z,100799.48
2023-02-26T02:29:53.056Z,100799.48
2023-02-26T02:32:57.578Z,100806.58
2023-02-26T02:35:47.479Z,100806.62
2023-02-26T02:38:23.016Z,100815.09
2023-02-26T02:40:57.514Z,100817.63
2023-02-26T02:43:53.022Z,100815.70
2023-02-26T02:47:06.622Z,100816.52
2023-02-26T02:49:43.785Z,100812.01
2023-02-26T02:52:19.769Z,100819.92
2023-02-26T02:55:15.986Z,100814.00
2023-02-26T02:58:27.728Z,100816.81
2023-02-26T03:27:21.450Z,100822.83
2023-02-26T03:30:09.341Z,100823.13
2023-02-26T03:32:58.496Z,100826.23
2023-02-26T03:35:45.813Z,100821.49
2023-02-26T03:38:17.808Z,100826.27
2023-02-26T03:40:56.336Z,100839.77
2023-02-26T03:43:33.216Z,100842.02
2023-02-26T03:46:03.464Z,100841.44
2023-02-26T03:48:31.456Z,100844.84
2023-02-26T03:51:02.011Z,100841.77
2023-02-26T03:53:32.832Z,100833.03
2023-02-26T03:56:13.632Z,100839.77
2023-02-26T03:58:41.473Z,100846.57
2023-02-26T04:01:11.686Z,100859.48
2023-02-26T04:03:47.023Z,100857.23
2023-02-26T04:06:14.886Z,100854.41
2023-02-26T04:08:42.812Z,100856.41
2023-02-26T04:11:21.213Z,100860.04
2023-02-26T04:13:49.232Z,100862.03
2023-02-26T04:16:17.476Z,100860.63
2023-02-26T04:18:45.529Z,100867.10
2023-02-26T04:21:17.682Z,100867.40
2023-02-26T04:23:45.702Z,100867.10
2023-02-26T04:26:14.472Z,100867.69
2023-02-26T04:28:42.778Z,100870.21
2023-02-26T04:31:11.605Z,100875.87
2023-02-26T04:33:39.507Z,100871.65
2023-02-26T04:36:07.622Z,100877.27
2023-02-26T04:38:35.443Z,100890.48
2023-02-26T04:41:03.462Z,100894.41
2023-02-26T04:43:31.348Z,100899.18
2023-02-26T04:45:59.222Z,100900.02
2023-02-26T04:48:27.040Z,100900.88
2023-02-26T04:50:54.890Z,100902.28
2023-02-26T04:53:22.815Z,100895.02
2023-02-26T04:55:52.450Z,100885.48
2023-02-26T04:58:20.473Z,100893.88
2023-02-26T05:00:52.236Z,100889.70
2023-02-26T05:03:20.022Z,100893.33
2023-02-26T05:05:47.865Z,100901.20
2023-02-26T05:08:15.763Z,100889.37
2023-02-26T05:10:43.695Z,100896.13
2023-02-26T05:13:11.567Z,100900.91
2023-02-26T05:15:39.597Z,100899.51
2023-02-26T05:18:07.460Z,100910.75
2023-02-26T05:20:35.229Z,100906.80
2023-02-26T05:23:03.056Z,100911.30
2023-02-26T05:25:30.919Z,100915.79
2023-02-26T05:27:58.871Z,100918.89
2023-02-26T05:30:26.745Z,100921.41
2023-02-26T05:32:55.896Z,100921.97
2023-02-26T05:35:23.682Z,100927.85
2023-02-26T05:37:51.635Z,100926.74
2023-02-26T05:40:20.422Z,100926.45
2023-02-26T05:42:48.240Z,100927.59
2023-02-26T05:45:16.175Z,100916.34
2023-02-26T05:47:43.987Z,100922.82
2023-02-26T05:50:12.484Z,100925.34
2023-02-26T05:52:40.350Z,100923.38
2023-02-26T05:55:09.202Z,100918.30
2023-02-26T05:57:37.015Z,100930.92
2023-02-26T06:00:06.634Z,100932.37
2023-02-26T06:02:34.697Z,100934.85
2023-02-26T06:05:02.515Z,100940.47
2023-02-26T06:07:31.998Z,100929.78
2023-02-26T06:09:59.800Z,100932.04
2023-02-26T06:12:27.594Z,100934.26
2023-02-26T06:14:55.619Z,100929.48
2023-02-26T06:17:23.437Z,100936.78
2023-02-26T06:19:51.319Z,100939.88
2023-02-26T06:22:19.409Z,100938.22
2023-02-26T06:24:47.308Z,100953.95
2023-02-26T06:27:15.186Z,100951.95
2023-02-26T06:29:43.216Z,100962.38
2023-02-26T06:32:11.085Z,100969.67
2023-02-26T06:34:38.967Z,100964.05
2023-02-26T06:37:06.743Z,100975.03
2023-02-26T06:39:34.639Z,100977.02
2023-02-26T06:42:02.489Z,100992.46
2023-02-26T06:44:30.313Z,100984.29
2023-02-26T06:46:58.121Z,100973.92
2023-02-26T06:49:26.028Z,100982.36
2023-02-26T06:51:54.045Z,100977.84
2023-02-26T06:54:21.924Z,100985.73
2023-02-26T06:56:49.786Z,100987.66
2023-02-26T06:59:17.968Z,100987.66
2023-02-26T07:01:45.876Z,100993.27
2023-02-26T07:04:13.703Z,100987.39
2023-02-26T07:06:41.774Z,100996.94
2023-02-26T07:09:09.762Z,101000.86
2023-02-26T07:11:37.665Z,101010.45
2023-02-26T07:14:05.633Z,101015.22
2023-02-26T07:16:33.541Z,101022.51
2023-02-26T07:19:01.606Z,101018.59
2023-02-26T07:21:29.496Z,101020.84
2023-02-26T07:23:57.400Z,101025.88
2023-02-26T07:26:25.570Z,101030.13
2023-02-26T07:28:53.699Z,101035.16
2023-02-26T07:31:22.723Z,101032.91
2023-02-26T07:33:51.124Z,101041.60
2023-02-26T07:36:18.945Z,101045.00
2023-02-26T07:38:46.738Z,101047.23
2023-02-26T07:41:14.623Z,101057.91
2023-02-26T07:43:44.284Z,101068.58
2023-02-26T07:46:12.241Z,101067.98
2023-02-26T07:48:40.154Z,101069.95
2023-02-26T07:51:09.098Z,101072.20
2023-02-26T07:53:36.973Z,101073.94
2023-02-26T07:56:04.940Z,101077.34
2023-02-26T07:58:32.797Z,101090.84
2023-02-26T08:01:00.577Z,101085.22
2023-02-26T08:03:28.489Z,101085.52
2023-02-26T08:05:56.344Z,101087.24
2023-02-26T08:08:24.176Z,101084.44
2023-02-26T08:10:52.117Z,101084.40
2023-02-26T08:13:20.123Z,101074.52
2023-02-26T08:15:49.300Z,101085.45
2023-02-26T08:18:17.188Z,101083.20
2023-02-26T08:20:45.037Z,101077.02
2023-02-26T08:23:12.980Z,101075.93
2023-02-26T08:25:41.187Z,101071.78
2023-02-26T08:28:09.500Z,101075.48
2023-02-26T08:30:37.677Z,101076.88
2023-02-26T08:33:05.653Z,101065.93
2023-02-26T08:35:33.473Z,101082.73
2023-02-26T08:38:01.370Z,101068.45
2023-02-26T08:40:30.076Z,101067.20
2023-02-26T08:43:00.038Z,101072.20
2023-02-26T08:45:28.251Z,101073.48
2023-02-26T08:47:57.458Z,101080.45
2023-02-26T08:50:28.040Z,101085.32
2023-02-26T08:52:55.979Z,101082.80
2023-02-26T08:55:24.041Z,101092.64
2023-02-26T08:57:52.432Z,101090.41
2023-02-26T09:00:20.688Z,101091.82
2023-02-26T09:02:48.733Z,101092.67
2023-02-26T09:05:16.698Z,101090.38
2023-02-26T09:07:44.738Z,101097.41
2023-02-26T09:10:13.149Z,101097.38
2023-02-26T09:12:41.108Z,101108.34
2023-02-26T09:15:09.812Z,101104.90
2023-02-26T09:17:37.883Z,101104.09
2023-02-26T09:20:06.103Z,101109.09
2023-02-26T09:22:33.969Z,101093.36
2023-02-26T09:25:02.152Z,101111.90
2023-02-26T09:27:30.053Z,101112.13
2023-02-26T09:29:57.980Z,101114.97
2023-02-26T09:32:28.016Z,101111.87
2023-02-26T09:34:56.145Z,101108.20
2023-02-26T09:37:24.080Z,101117.23
2023-02-26T09:39:54.610Z,101120.56
2023-02-26T09:42:50.848Z,101132.37
2023-02-26T09:45:28.037Z,101133.97
2023-02-26T09:47:56.421Z,101138.74
2023-02-26T09:50:28.085Z,101130.41
2023-02-26T09:53:03.759Z,101135.73
2023-02-26T09:55:32.319Z,101140.54
2023-02-26T09:58:02.102Z,101136.03
2023-02-26T10:00:29.813Z,101125.17
2023-02-26T10:03:21.410Z,101120.70
2023-02-26T10:06:17.087Z,101130.63
2023-02-26T10:08:53.197Z,101114.87
2023-02-26T10:11:53.364Z,101123.34
2023-02-26T10:14:33.372Z,101123.64
2023-02-26T10:17:03.700Z,101120.27
2023-02-26T10:19:38.432Z,101111.24
2023-02-26T10:22:35.955Z,101116.05
2023-02-26T10:25:09.091Z,101113.20
2023-02-26T10:27:58.225Z,101116.87
2023-02-26T10:30:43.156Z,101124.45
2023-02-26T10:33:33.706Z,101121.97
2023-02-26T10:36:06.770Z,101123.64
2023-02-26T10:38:34.585Z,101128.97
2023-02-26T10:41:06.328Z,101121.38
2023-02-26T10:43:40.306Z,101117.42
2023-02-26T10:46:10.935Z,101115.17
2023-02-26T10:48:51.517Z,101130.63
2023-02-26T10:51:29.814Z,101131.78
2023-02-26T10:54:04.057Z,101139.37
2023-02-26T10:56:33.464Z,101139.10
2023-02-26T10:59:01.652Z,101134.59
2023-02-26T11:01:30.936Z,101145.02
2023-02-26T11:04:06.313Z,101131.74
2023-02-26T11:06:46.829Z,101133.19
2023-02-26T11:09:28.854Z,101137.99
2023-02-26T11:12:06.532Z,101153.16
2023-02-26T11:14:35.128Z,101147.54
2023-02-26T11:17:05.456Z,101150.09
2023-02-26T11:19:36.334Z,101135.99
2023-02-26T11:22:05.566Z,101152.34
2023-02-26T11:24:36.871Z,101143.62
2023-02-26T11:27:06.336Z,101155.98
2023-02-26T11:29:39.645Z,101136.59
2023-02-26T11:32:08.024Z,101133.77
2023-02-26T11:34:38.780Z,101133.74
2023-02-26T11:37:06.704Z,101137.40
2023-02-26T11:39:35.796Z,101134.88
2023-02-26T11:42:03.990Z,101132.07
2023-02-26T11:44:40.292Z,101127.01
2023-02-26T11:47:26.318Z,101131.48
2023-02-26T11:49:55.734Z,101142.77
2023-02-26T11:52:37.961Z,101136.55
2023-02-26T11:55:19.631Z,101134.63
2023-02-26T11:57:47.620Z,101125.04
2023-02-26T12:00:34.452Z,101125.56
2023-02-26T12:03:05.848Z,101118.24
2023-02-26T12:05:33.813Z,101125.01
2023-02-26T12:08:01.793Z,101120.27
2023-02-26T12:10:36.566Z,101132.34
2023-02-26T12:13:18.806Z,101131.78
2023-02-26T12:16:01.382Z,101125.89
2023-02-26T12:18:50.397Z,101129.81
2023-02-26T12:21:34.671Z,101125.30
2023-02-26T12:24:21.557Z,101139.66
2023-02-26T12:27:11.742Z,101139.66
2023-02-26T12:29:59.626Z,101125.30
2023-02-26T12:32:49.906Z,101125.04
2023-02-26T12:35:28.046Z,101123.64
2023-02-26T12:38:20.754Z,101130.66
2023-02-26T12:41:00.042Z,101138.84
2023-02-26T12:43:28.004Z,101134.59
2023-02-26T12:46:04.320Z,101116.02
2023-02-26T12:48:36.143Z,101135.73
2023-02-26T12:51:25.990Z,101125.56
2023-02-26T12:54:30.301Z,101127.73
2023-02-26T12:56:58.170Z,101126.25
2023-02-26T12:59:47.214Z,101116.77
2023-02-26T13:02:29.531Z,101111.18
2023-02-26T13:05:37.967Z,101120.47
2023-02-26T13:08:14.777Z,101126.09
2023-02-26T13:11:08.787Z,101124.16
2023-02-26T13:13:45.843Z,101150.64
2023-02-26T13:16:17.556Z,101155.41
2023-02-26T13:19:09.591Z,101162.16
2023-02-26T13:21:51.774Z,101155.32
2023-02-26T13:24:24.558Z,101158.66
2023-02-26T13:26:53.448Z,101158.10
2023-02-26T13:29:45.497Z,101143.58
2023-02-26T13:32:17.756Z,101150.64
2023-02-26T13:34:48.747Z,101149.53
2023-02-26T13:37:31.126Z,101147.27
2023-02-26T13:40:23.945Z,101145.31
2023-02-26T13:43:16.478Z,101150.09
2023-02-26T13:45:54.164Z,101151.79
2023-02-26T13:49:05.249Z,101152.61
2023-02-26T13:51:40.689Z,101149.80
2023-02-26T13:54:10.338Z,101152.61
2023-02-26T13:56:38.241Z,101152.90
2023-02-26T13:59:19.564Z,101137.99
2023-02-26T14:01:48.592Z,101135.70
2023-02-26T14:04:27.380Z,101148.13
2023-02-26T14:06:58.681Z,101140.80
2023-02-26T14:09:29.637Z,101139.95
2023-02-26T14:12:05.209Z,101145.28
2023-02-26T14:14:44.277Z,101144.70
2023-02-26T14:17:12.529Z,101140.18
2023-02-26T14:19:45.448Z,101146.36
2023-02-26T14:22:32.179Z,101129.72
2023-02-26T14:25:19.458Z,101134.69
2023-02-26T14:27:48.837Z,101126.55
2023-02-26T14:30:30.135Z,101131.71
2023-02-26T14:33:07.159Z,101136.16
2023-02-26T14:35:37.676Z,101131.26
2023-02-26T14:38:14.053Z,101131.26
2023-02-26T14:40:45.817Z,101150.02
2023-02-26T14:43:35.395Z,101150.35
2023-02-26T14:46:05.149Z,101143.32
2023-02-26T14:48:34.110Z,101148.45
2023-02-26T14:51:36.030Z,101139.79
2023-02-26T14:54:20.561Z,101145.41
2023-02-26T14:57:05.172Z,101148.55
2023-02-26T14:59:59.718Z,101144.89
2023-02-26T15:02:34.956Z,101142.37
2023-02-26T15:05:05.968Z,101146.88
2023-02-26T15:07:40.786Z,101149.17
2023-02-26T15:10:15.078Z,101151.69
2023-02-26T15:13:07.581Z,101158.75
2023-02-26T15:15:47.103Z,101152.87
2023-02-26T15:18:31.534Z,101171.14
2023-02-26T15:21:27.499Z,101171.99
2023-02-26T15:23:56.543Z,101170.62
2023-02-26T15:26:28.770Z,101177.36
2023-02-26T15:28:57.217Z,101188.08
2023-02-26T15:31:39.187Z,101186.94
2023-02-26T15:34:07.183Z,101188.34
2023-02-26T15:36:37.405Z,101188.93
2023-02-26T15:39:08.249Z,101197.66
2023-02-26T15:41:36.172Z,101214.53
2023-02-26T15:44:08.720Z,101204.43
2023-02-26T15:46:40.913Z,101219.05
2023-02-26T15:49:32.798Z,101231.70
2023-02-26T15:52:00.848Z,101228.59
2023-02-26T15:54:36.890Z,101236.18
2023-02-26T15:57:05.102Z,101230.29
2023-02-26T15:59:33.462Z,101238.70
2023-02-26T16:02:04.002Z,101242.06
2023-02-26T16:04:32.019Z,101241.24
2023-02-26T16:06:59.883Z,101228.56
2023-02-26T16:09:35.770Z,101235.30
2023-02-26T16:12:07.717Z,101245.98
2023-02-26T16:14:38.913Z,101243.11
2023-02-26T16:17:07.973Z,101225.65
2023-02-26T16:19:54.138Z,101232.91
2023-02-26T16:22:32.239Z,101238.83
2023-02-26T16:25:07.955Z,101242.45
2023-02-26T16:27:35.834Z,101243.57
2023-02-26T16:30:05.093Z,101262.14
2023-02-26T16:32:34.666Z,101271.39
2023-02-26T16:35:02.920Z,101269.73
2023-02-26T16:37:30.809Z,101271.13
2023-02-26T16:40:16.738Z,101275.91
2023-02-26T16:42:47.130Z,101274.23
2023-02-26T16:45:50.400Z,101260.44
2023-02-26T16:48:22.532Z,101264.66
2023-02-26T16:51:07.934Z,101254.26
2023-02-26T16:53:46.888Z,101253.41
2023-02-26T16:56:18.064Z,101257.63
2023-02-26T16:58:47.248Z,101269.98
2023-02-26T17:01:18.261Z,101267.47
2023-02-26T17:04:01.541Z,101276.46
2023-02-26T17:06:32.336Z,101286.59
2023-02-26T17:09:01.539Z,101282.38
2023-02-26T17:11:34.380Z,101284.05
2023-02-26T17:14:09.290Z,101290.81
2023-02-26T17:16:37.177Z,101290.81
2023-02-26T17:19:05.243Z,101288.00
2023-02-26T17:21:33.178Z,101294.77
2023-02-26T17:24:01.196Z,101289.41
2023-02-26T17:26:29.109Z,101305.46
2023-02-26T17:28:57.039Z,101303.47
2023-02-26T17:31:25.291Z,101306.57
2023-02-26T17:33:53.657Z,101302.13
2023-02-26T17:36:21.673Z,101293.76
2023-02-26T17:38:50.831Z,101308.93
2023-02-26T17:41:19.476Z,101314.29
2023-02-26T17:43:47.322Z,101314.29
2023-02-26T17:46:15.659Z,101311.18
2023-02-26T17:48:43.593Z,101312.91
2023-02-26T17:51:12.566Z,101319.06
2023-02-26T17:53:45.144Z,101317.69
2023-02-26T17:56:17.449Z,101305.85
2023-02-26T17:58:46.725Z,101307.81
2023-02-26T18:01:14.616Z,101316.52
2023-02-26T18:03:42.733Z,101314.55
2023-02-26T18:06:12.751Z,101313.11
2023-02-26T18:08:41.930Z,101316.48
2023-02-26T18:11:13.136Z,101322.10
2023-02-26T18:13:40.949Z,101330.80
2023-02-26T18:16:14.062Z,101333.91
2023-02-26T18:18:41.963Z,101343.75
2023-02-26T18:21:09.842Z,101344.86
2023-02-26T18:23:37.813Z,101347.67
2023-02-26T18:26:06.887Z,101348.75
2023-02-26T18:28:34.885Z,101358.27
2023-02-26T18:31:09.593Z,101363.89
2023-02-26T18:33:39.823Z,101352.05
2023-02-26T18:36:08.311Z,101359.61
2023-02-26T18:38:36.687Z,101352.02
2023-02-26T18:41:04.618Z,101373.11
2023-02-26T18:43:32.638Z,101339.63
2023-02-26T18:46:03.424Z,101339.92
2023-02-26T18:48:31.384Z,101344.66
2023-02-26T18:51:00.557Z,101355.06
2023-02-26T18:53:42.061Z,101365.46
2023-02-26T18:56:10.211Z,101366.60
2023-02-26T18:58:41.378Z,101360.98
2023-02-26T19:01:09.248Z,101369.91
2023-02-26T19:03:37.201Z,101360.33
2023-02-26T19:06:06.312Z,101364.87
2023-02-26T19:08:34.509Z,101354.99
2023-02-26T19:11:02.438Z,101355.26
2023-02-26T19:13:30.350Z,101366.24
2023-02-26T19:15:58.821Z,101356.44
2023-02-26T19:18:26.738Z,101362.05
2023-02-26T19:20:54.951Z,101371.02
2023-02-26T19:23:22.996Z,101381.67
2023-02-26T19:25:52.591Z,101405.55
2023-02-26T19:28:20.578Z,101408.95
2023-02-26T19:30:48.559Z,101408.95
2023-02-26T19:33:19.306Z,101408.09
2023-02-26T19:35:47.278Z,101410.61
2023-02-26T19:38:15.239Z,101406.66
2023-02-26T19:40:43.207Z,101409.17
2023-02-26T19:43:11.404Z,101403.26
2023-02-26T19:45:39.257Z,101397.11
2023-02-26T19:48:07.802Z,101397.37
2023-02-26T19:50:36.239Z,101403.84
2023-02-26T19:53:05.115Z,101393.97
2023-02-26T19:55:33.088Z,101408.88
2023-02-26T19:58:00.960Z,101407.51
2023-02-26T20:00:28.835Z,101411.43
2023-02-26T20:02:56.841Z,101408.03
2023-02-26T20:05:25.178Z,101413.66
2023-02-26T20:07:53.184Z,101427.91
2023-02-26T20:10:21.405Z,101404.92
2023-02-26T20:12:49.361Z,101410.25
2023-02-26T20:15:18.195Z,101440.63
2023-02-26T20:17:46.341Z,101418.13
2023-02-26T20:20:14.520Z,101436.08
2023-02-26T20:22:42.458Z,101439.41
2023-02-26T20:25:10.848Z,101439.41
2023-02-26T20:27:38.894Z,101446.74
2023-02-26T20:30:07.569Z,101438.57
2023-02-26T20:32:35.885Z,101430.42
2023-02-26T20:35:04.508Z,101434.02
2023-02-26T20:37:32.781Z,101433.47
2023-02-26T20:40:00.835Z,101431.51
2023-02-26T20:42:29.339Z,101424.73
2023-02-26T20:44:57.215Z,101432.06
2023-02-26T20:47:25.056Z,101432.32
2023-02-26T20:49:52.972Z,101421.89
2023-02-26T20:52:20.957Z,101425.29
2023-02-26T20:54:48.930Z,101419.96
2023-02-26T20:57:17.104Z,101427.26
2023-02-26T20:59:44.960Z,101438.21
2023-02-26T21:02:14.203Z,101439.61
2023-02-26T21:04:42.210Z,101438.17
2023-02-26T21:07:18.917Z,101447.76
2023-02-26T21:09:49.313Z,101433.99
2023-02-26T21:12:17.679Z,101454.49
2023-02-26T21:14:46.024Z,101444.65
2023-02-26T21:17:13.892Z,101445.76
2023-02-26T21:19:42.024Z,101431.96
2023-02-26T21:22:09.955Z,101426.11
2023-02-26T21:24:37.982Z,101421.27
2023-02-26T21:27:06.030Z,101411.13
2023-02-26T21:29:34.090Z,101405.55
2023-02-26T21:32:04.634Z,101404.70
2023-02-26T21:34:37.128Z,101414.80
2023-02-26T21:37:07.788Z,101413.13
2023-02-26T21:39:36.085Z,101417.09
2023-02-26T21:42:04.955Z,101425.20
2023-02-26T21:44:34.306Z,101429.45
2023-02-26T21:47:02.925Z,101429.09
2023-02-26T21:49:32.848Z,101453.31
2023-02-26T21:52:02.034Z,101449.95
2023-02-26T21:54:30.352Z,101445.40
2023-02-26T21:56:58.448Z,101434.19
2023-02-26T21:59:26.843Z,101434.19
2023-02-26T22:01:55.051Z,101431.96
2023-02-26T22:04:23.251Z,101438.41
2023-02-26T22:06:51.499Z,101431.11
2023-02-26T22:09:20.512Z,101427.19
2023-02-26T22:11:48.492Z,101424.12
2023-02-26T22:14:17.212Z,101424.12
2023-02-26T22:16:45.461Z,101424.67
2023-02-26T22:19:13.456Z,101435.04
2023-02-26T22:21:41.367Z,101421.01
2023-02-26T22:24:09.467Z,101417.91
2023-02-26T22:26:37.549Z,101427.71
2023-02-26T22:29:05.825Z,101414.50
2023-02-26T22:31:33.975Z,101414.27
2023-02-26T22:34:02.030Z,101422.94
2023-02-26T22:36:32.478Z,101420.13
2023-02-26T22:39:00.483Z,101426.34
2023-02-26T22:41:28.421Z,101433.07
2023-02-26T22:43:56.657Z,101422.38
2023-02-26T22:46:26.595Z,101420.48
2023-02-26T22:48:55.327Z,101420.95
2023-02-26T22:51:23.547Z,101417.61
2023-02-26T22:53:51.615Z,101415.65
2023-02-26T22:56:19.587Z,101421.56
2023-02-26T22:58:47.651Z,101427.48
2023-02-26T23:01:15.743Z,101420.13
2023-02-26T23:03:43.732Z,101417.02
2023-02-26T23:06:11.754Z,101421.53
2023-02-26T23:08:39.974Z,101419.57
2023-02-26T23:11:08.940Z,101424.90
2023-02-26T23:13:36.998Z,101429.97
2023-02-26T23:16:06.229Z,101428.53
2023-02-26T23:18:35.378Z,101430.82
2023-02-26T23:21:03.546Z,101426.57
2023-02-26T23:23:31.396Z,101431.05
2023-02-26T23:25:59.474Z,101430.23
2023-02-26T23:28:27.387Z,101435.23
2023-02-26T23:30:55.482Z,101437.52
2023-02-26T23:33:23.627Z,101433.56
2023-02-26T23:35:51.550Z,101423.76
2023-02-26T23:38:19.469Z,101441.45
2023-02-26T23:40:47.487Z,101435.23
2023-02-26T23:43:15.517Z,101432.71
2023-02-26T23:45:43.455Z,101436.05
2023-02-26T23:48:11.310Z,101443.93
2023-02-26T23:50:39.184Z,101440.30
2023-02-26T23:53:07.401Z,101425.12
2023-02-26T23:55:35.221Z,101438.01
2023-02-26T23:58:03.196Z,101436.90
